KPMU/PMU METAR and TAF weather

Enter ICAO airport designator
Station Type Date Time Source
KPMU METAR 2019/08/18 19:15 UTC NOAA

KPMU 181915Z AUTO 00000KT FEW046 FEW055 SCT070 33/24 A2994 RMK AO2


Station Type Date Time Source
KPMU Decoded METAR 2019/08/18 19:15 UTC NOAA

Station name not available
Aug 18, 2019 - 03:15 PM EDT / 2019.08.18 1915 UTC
Wind: Calm:0
Sky conditions: partly cloudy
Temperature: 91 F (33 C)
Heat index: 101.5 F (38.6 C):1
Dew Point: 75 F (24 C)
Relative Humidity: 59%
Pressure (altimeter): 29.94 in. Hg (1013 hPa)
ob: KPMU 181915Z AUTO 00000KT FEW046 FEW055 SCT070 33/24 A2994 RMK AO2
cycle: 19

Station Type Date Time Source
KPMU TAF UTC NOAA

Error!

Example: see airport list